Time;durP1;ratioP1;P1;durP2;ratioP2;P2;SDS_P1;SDS_P2;PMS_P1;PMS_P2;Temp;Humidity;BMP_temperature;BMP_pressure;BME280_temperature;BME280_humidity;BME280_pressure;Samples;Min_cycle;Max_cycle;Signal;HPM_P1;HPM_P2
2021/12/27 00:01:49;;;;;;;80.70;31.00;;;;;;;-9.63;79.02;98316.59;102272;1332;138245;-80
2021/12/27 00:04:30;;;;;;;75.70;31.10;;;;;;;-9.65;79.46;98313.06;102650;1330;22602;-80
2021/12/27 00:06:56;;;;;;;85.90;32.20;;;;;;;-9.64;79.55;98317.05;102544;1330;138845;-79
2021/12/27 00:09:22;;;;;;;76.80;29.70;;;;;;;-9.64;79.55;98315.27;102678;1330;22695;-80
2021/12/27 00:11:48;;;;;;;86.30;34.20;;;;;;;-9.67;79.72;98307.25;102574;1328;25098;-80
2021/12/27 00:14:15;;;;;;;92.80;35.20;;;;;;;-9.65;79.80;98307.14;102226;1330;271790;-80
2021/12/27 00:16:41;;;;;;;86.30;34.50;;;;;;;-9.65;79.70;98306.61;102259;1333;22760;-79
2021/12/27 00:19:08;;;;;;;92.80;37.10;;;;;;;-9.67;79.77;98301.11;101876;1327;138407;-79
2021/12/27 00:21:38;;;;;;;95.30;35.00;;;;;;;-9.70;79.91;98300.64;102455;1332;23029;-79
2021/12/27 00:24:05;;;;;;;93.70;34.30;;;;;;;-9.70;80.05;98301.21;102562;1326;30215;-79
2021/12/27 00:26:31;;;;;;;87.80;37.30;;;;;;;-9.71;80.03;98297.63;102548;1325;138361;-79
2021/12/27 00:28:57;;;;;;;87.80;34.30;;;;;;;-9.72;80.07;98298.34;102451;1324;22991;-79
2021/12/27 00:31:23;;;;;;;89.60;34.90;;;;;;;-9.73;80.12;98301.55;102545;1325;138544;-78
2021/12/27 00:33:49;;;;;;;93.70;34.40;;;;;;;-9.74;79.96;98302.89;102451;1330;22775;-80
2021/12/27 00:36:16;;;;;;;95.50;36.30;;;;;;;-9.71;80.43;98299.48;101973;1331;22745;-79
2021/12/27 00:38:42;;;;;;;90.70;36.70;;;;;;;-9.68;80.40;98299.80;102214;1330;139055;-79
2021/12/27 00:41:08;;;;;;;97.20;36.20;;;;;;;-9.66;80.18;98303.12;102462;1332;26519;-79
2021/12/27 00:43:34;;;;;;;82.90;35.90;;;;;;;-9.60;80.28;98307.23;102312;1328;138491;-79
2021/12/27 00:46:00;;;;;;;86.60;35.30;;;;;;;-9.56;80.15;98311.63;102704;1332;23798;-79
2021/12/27 00:48:27;;;;;;;85.30;34.80;;;;;;;-9.50;80.19;98309.65;102510;1331;22631;-80
2021/12/27 00:50:53;;;;;;;90.00;33.20;;;;;;;-9.44;79.84;98308.08;102641;1325;138443;-79
2021/12/27 00:53:20;;;;;;;86.20;34.10;;;;;;;-9.47;79.45;98307.91;102742;1329;22373;-80
2021/12/27 00:55:46;;;;;;;80.30;32.40;;;;;;;-9.47;79.78;98304.61;102537;1333;138222;-80
2021/12/27 00:58:13;;;;;;;82.20;34.70;;;;;;;-9.48;79.64;98306.11;102635;1330;24351;-80
2021/12/27 01:00:39;;;;;;;74.00;31.30;;;;;;;-9.48;79.86;98307.86;102795;1327;25514;-80
2021/12/27 01:03:05;;;;;;;83.10;31.40;;;;;;;-9.44;79.73;98308.95;102723;1332;138110;-80
2021/12/27 01:05:32;;;;;;;78.80;33.10;;;;;;;-9.39;79.92;98301.67;102158;1333;24390;-80
2021/12/27 01:07:59;;;;;;;84.70;31.60;;;;;;;-9.33;79.87;98302.48;102154;1330;138593;-80
2021/12/27 01:15:50;;;;;;;81.70;30.70;;;;;;;-9.20;79.31;98298.73;102617;1327;23729;-80
2021/12/27 01:18:18;;;;;;;92.30;34.60;;;;;;;-9.18;79.01;98295.95;102689;1330;23714;-80
2021/12/27 01:20:45;;;;;;;81.60;32.10;;;;;;;-9.21;78.83;98297.11;102113;1330;137627;-80
2021/12/27 01:23:13;;;;;;;90.00;33.70;;;;;;;-9.25;78.89;98295.67;102713;1329;26841;-81
2021/12/27 01:25:39;;;;;;;86.30;35.10;;;;;;;-9.30;79.12;98298.02;102301;1331;138503;-81
2021/12/27 01:28:06;;;;;;;90.50;33.80;;;;;;;-9.37;78.60;98300.52;102460;1331;24507;-78
2021/12/27 01:30:37;;;;;;;83.80;32.60;;;;;;;-9.48;78.57;98298.69;102367;1329;24407;-79
2021/12/27 01:33:07;;;;;;;87.40;33.30;;;;;;;-9.56;78.89;98297.45;102606;1333;138109;-79
2021/12/27 01:35:34;;;;;;;90.70;34.10;;;;;;;-9.64;78.32;98298.21;102186;1331;22904;-81
2021/12/27 01:38:01;;;;;;;90.30;34.70;;;;;;;-9.74;78.41;98298.98;102558;1330;139386;-80
2021/12/27 01:40:30;;;;;;;87.40;31.50;;;;;;;-9.81;78.63;98299.55;102582;1330;24256;-80
2021/12/27 01:43:15;;;;;;;97.00;34.40;;;;;;;-9.81;79.09;98299.94;102526;1333;138735;-80
2021/12/27 01:45:49;;;;;;;94.80;34.80;;;;;;;-9.80;79.18;98296.64;102524;1327;29798;-80
2021/12/27 01:48:20;;;;;;;86.70;33.10;;;;;;;-9.78;79.36;98299.66;102656;1333;24265;-80
2021/12/27 01:50:48;;;;;;;82.50;33.50;;;;;;;-9.75;79.31;98299.62;102293;1327;138317;-81
2021/12/27 01:53:16;;;;;;;72.70;31.30;;;;;;;-9.73;79.51;98301.41;102391;1330;25541;-81
2021/12/27 01:55:43;;;;;;;69.00;30.70;;;;;;;-9.69;79.22;98307.79;102657;1327;139166;-81
2021/12/27 01:58:09;;;;;;;77.70;32.50;;;;;;;-9.68;78.84;98304.73;102676;1328;23662;-81
2021/12/27 02:00:38;;;;;;;81.90;32.40;;;;;;;-9.68;79.06;98302.91;102636;1332;23237;-81
2021/12/27 02:03:04;;;;;;;82.50;30.10;;;;;;;-9.64;79.35;98296.46;102450;1331;138038;-81
2021/12/27 02:05:32;;;;;;;89.20;33.60;;;;;;;-9.61;79.22;98296.55;102504;1333;22702;-81
2021/12/27 02:07:58;;;;;;;85.60;33.80;;;;;;;-9.62;79.04;98290.14;102121;1332;138358;-81
2021/12/27 02:10:25;;;;;;;72.60;32.60;;;;;;;-9.65;78.59;98290.62;102583;1331;25013;-81
2021/12/27 02:12:51;;;;;;;81.80;32.60;;;;;;;-9.68;78.86;98290.09;102678;1333;138410;-81
2021/12/27 02:15:18;;;;;;;89.20;34.80;;;;;;;-9.69;78.95;98289.14;102424;1330;23689;-79
2021/12/27 02:17:44;;;;;;;88.50;33.90;;;;;;;-9.69;78.93;98285.61;102432;1327;23096;-78
2021/12/27 02:20:32;;;;;;;81.40;34.50;;;;;;;-9.70;78.90;98283.77;102572;1328;138989;-79
2021/12/27 02:23:02;;;;;;;80.00;33.50;;;;;;;-9.66;78.90;98275.41;102764;1325;22797;-81
2021/12/27 02:25:31;;;;;;;84.80;31.80;;;;;;;-9.62;79.09;98272.74;102685;1332;139135;-80
2021/12/27 02:27:58;;;;;;;85.90;32.30;;;;;;;-9.60;78.67;98273.48;102673;1327;22734;-81
2021/12/27 02:30:29;;;;;;;75.90;32.30;;;;;;;-9.63;78.18;98274.93;102644;1327;22703;-80
2021/12/27 02:32:59;;;;;;;74.90;32.10;;;;;;;-9.67;78.45;98272.67;102760;1330;139076;-81
2021/12/27 02:35:29;;;;;;;88.80;33.90;;;;;;;-9.74;78.22;98271.42;102573;1332;23141;-81
2021/12/27 02:37:59;;;;;;;95.90;34.80;;;;;;;-9.77;78.37;98267.23;102552;1333;138605;-80
2021/12/27 02:40:29;;;;;;;87.00;34.10;;;;;;;-9.79;78.45;98266.20;102846;1333;25637;-81
2021/12/27 02:43:00;;;;;;;;;;;;;;;-9.83;78.48;98267.45;102585;1333;138862;-81
2021/12/27 02:45:29;;;;;;;98.60;34.90;;;;;;;-9.90;78.43;98261.48;102741;1330;22751;-80
2021/12/27 02:47:56;;;;;;;101.90;33.90;;;;;;;-9.91;78.67;98264.87;102787;1330;22586;-81
2021/12/27 02:50:27;;;;;;;112.10;38.00;;;;;;;-9.94;78.60;98262.80;102914;1330;139135;-81
2021/12/27 02:52:57;;;;;;;99.40;35.80;;;;;;;-9.98;78.24;98265.72;102854;1330;22727;-81
2021/12/27 02:55:24;;;;;;;91.40;36.40;;;;;;;-10.03;78.34;98268.80;102642;1327;138599;-80
2021/12/27 02:57:50;;;;;;;100.20;38.20;;;;;;;-10.05;78.84;98269.14;102660;1327;25656;-80
2021/12/27 03:00:21;;;;;;;98.40;35.40;;;;;;;-10.05;78.84;98273.86;102692;1333;22957;-80
2021/12/27 03:02:49;;;;;;;91.00;36.80;;;;;;;-10.05;78.73;98268.91;102396;1327;138713;-80
2021/12/27 03:05:17;;;;;;;93.70;40.30;;;;;;;-10.04;78.66;98263.95;102223;1333;24313;-80
2021/12/27 03:07:46;;;;;;;100.60;39.20;;;;;;;-10.07;78.67;98261.95;102378;1327;138878;-81
2021/12/27 03:10:14;;;;;;;86.80;37.10;;;;;;;-10.09;78.66;98264.75;102568;1329;25648;-80
2021/12/27 03:12:43;;;;;;;93.30;35.50;;;;;;;-10.10;78.94;98263.36;102549;1327;22745;-80
2021/12/27 03:15:11;;;;;;;94.70;37.60;;;;;;;-10.12;78.71;98265.64;102408;1327;138528;-79
2021/12/27 03:17:38;;;;;;;100.30;38.80;;;;;;;-10.14;78.97;98268.77;102376;1333;22694;-80
2021/12/27 03:20:06;;;;;;;99.40;37.80;;;;;;;-10.18;78.89;98263.61;102374;1327;138773;-80
2021/12/27 03:22:34;;;;;;;101.80;38.30;;;;;;;-10.16;79.38;98267.52;102564;1327;22791;-79
2021/12/27 03:25:00;;;;;;;112.50;38.70;;;;;;;-10.17;79.30;98265.28;102248;1327;139026;-79
2021/12/27 03:27:27;;;;;;;98.00;38.30;;;;;;;-10.17;79.73;98265.85;102258;1327;22763;-80
2021/12/27 03:29:53;;;;;;;82.80;32.10;;;;;;;-10.18;79.85;98266.94;102221;1333;22736;-80
2021/12/27 03:32:21;;;;;;;82.50;33.10;;;;;;;-10.22;79.70;98262.91;102027;1332;138610;-80
2021/12/27 03:34:57;;;;;;;77.90;31.60;;;;;;;-10.29;79.83;98260.29;102253;1332;24315;-80
2021/12/27 03:37:24;;;;;;;75.90;29.70;;;;;;;-10.35;80.28;98257.09;102532;1332;139236;-80
2021/12/27 03:39:51;;;;;;;71.50;27.80;;;;;;;-10.39;80.11;98262.11;102421;1327;24067;-79
2021/12/27 03:42:18;;;;;;;77.10;28.80;;;;;;;-10.41;80.43;98271.56;102496;1332;23327;-80
2021/12/27 03:44:44;;;;;;;79.00;31.80;;;;;;;-10.42;80.71;98279.00;102505;1327;139117;-80
2021/12/27 03:47:11;;;;;;;81.50;31.70;;;;;;;-10.39;81.00;98283.50;102728;1333;22841;-79
2021/12/27 03:49:38;;;;;;;81.80;31.50;;;;;;;-10.36;80.74;98284.36;102704;1327;139182;-80
2021/12/27 03:52:04;;;;;;;81.70;30.10;;;;;;;-10.34;80.96;98282.10;102713;1330;23683;-80
2021/12/27 03:54:31;;;;;;;85.80;29.60;;;;;;;-10.35;80.57;98286.36;102814;1330;22890;-80
2021/12/27 03:56:57;;;;;;;78.10;32.40;;;;;;;-10.35;80.78;98286.23;102731;1328;139276;-80
2021/12/27 03:59:37;;;;;;;67.60;22.70;;;;;;;-10.38;80.72;98286.27;102805;1331;22789;-80
2021/12/27 04:02:03;;;;;;;;;;;;;;;-10.46;80.78;98279.66;102507;1330;138791;-80
2021/12/27 04:04:30;;;;;;;46.20;17.20;;;;;;;-10.51;81.06;98281.64;102826;1332;22935;-80
2021/12/27 04:06:56;;;;;;;50.20;19.00;;;;;;;-10.55;81.11;98281.94;103053;1327;138784;-81
2021/12/27 04:09:23;;;;;;;37.20;14.80;;;;;;;-10.54;81.59;98286.42;103079;1327;23485;-80
2021/12/27 04:11:50;;;;;;;48.10;18.70;;;;;;;-10.53;81.60;98283.17;102902;1330;22749;-78
2021/12/27 04:14:19;;;;;;;42.70;16.50;;;;;;;-10.49;82.02;98289.23;102706;1333;138641;-78
2021/12/27 04:16:46;;;;;;;45.30;17.30;;;;;;;-10.46;82.11;98287.09;102584;1332;23315;-78
2021/12/27 04:19:14;;;;;;;39.80;14.70;;;;;;;-10.39;82.03;98282.80;102354;1333;139331;-79
2021/12/27 04:21:55;;;;;;;36.70;14.40;;;;;;;-10.36;82.07;98277.16;102873;1333;23634;-79
2021/12/27 04:24:21;;;;;;;42.10;16.40;;;;;;;-10.39;81.95;98271.25;102429;1327;22728;-79
2021/12/27 04:26:47;;;;;;;37.90;15.20;;;;;;;-10.39;82.33;98271.27;102419;1328;139081;-79
2021/12/27 04:29:16;;;;;;;36.30;13.90;;;;;;;-10.37;82.51;98276.52;102909;1332;22731;-79
2021/12/27 04:31:42;;;;;;;36.00;15.50;;;;;;;-10.34;82.29;98277.00;102708;1330;138573;-79
2021/12/27 04:34:09;;;;;;;36.00;15.40;;;;;;;-10.31;82.25;98280.27;102503;1327;24350;-79
2021/12/27 04:36:40;;;;;;;38.30;15.80;;;;;;;-10.27;82.77;98278.56;102637;1330;24453;-80
2021/12/27 04:39:08;;;;;;;40.40;15.40;;;;;;;-10.26;82.40;98275.67;102723;1330;138543;-79
2021/12/27 04:41:35;;;;;;;39.70;16.20;;;;;;;-10.22;82.84;98279.20;102702;1333;25627;-80
2021/12/27 04:44:02;;;;;;;42.70;14.90;;;;;;;-10.13;83.40;98277.48;102687;1333;139620;-80
2021/12/27 04:46:28;;;;;;;40.80;15.00;;;;;;;-10.06;82.98;98275.73;102800;1330;24233;-80
2021/12/27 04:48:55;;;;;;;32.10;14.00;;;;;;;-10.02;83.02;98286.80;102683;1331;138990;-80
2021/12/27 04:51:22;;;;;;;30.10;13.40;;;;;;;-9.98;83.14;98286.84;102536;1331;25596;-80
2021/12/27 04:53:50;;;;;;;42.00;15.80;;;;;;;-9.94;83.06;98287.38;102915;1332;22697;-80
2021/12/27 04:56:16;;;;;;;30.30;13.90;;;;;;;-9.87;83.42;98285.52;102830;1327;138794;-80
2021/12/27 04:58:45;;;;;;;30.90;13.30;;;;;;;-9.82;83.21;98284.34;103045;1327;25658;-80
2021/12/27 05:01:12;;;;;;;27.90;11.00;;;;;;;-9.79;83.18;98287.99;102868;1327;138740;-80
2021/12/27 05:03:39;;;;;;;30.00;13.80;;;;;;;-9.79;83.35;98286.21;102882;1330;22641;-80
2021/12/27 05:06:08;;;;;;;32.80;14.00;;;;;;;-9.76;83.55;98287.21;102832;1333;22855;-80
2021/12/27 05:08:34;;;;;;;32.00;13.70;;;;;;;-9.68;83.63;98284.66;102643;1327;138441;-80
2021/12/27 05:11:00;;;;;;;36.30;13.00;;;;;;;-9.60;83.66;98276.29;102976;1328;25655;-81
2021/12/27 05:13:31;;;;;;;37.60;14.20;;;;;;;-9.51;83.38;98281.95;102649;1327;138861;-81
2021/12/27 05:15:59;;;;;;;33.30;14.60;;;;;;;-9.42;83.62;98286.61;102795;1327;25568;-80
2021/12/27 05:18:25;;;;;;;39.10;13.40;;;;;;;-9.33;83.47;98290.84;102650;1333;23583;-80
2021/12/27 05:20:52;;;;;;;31.00;13.70;;;;;;;-9.28;83.33;98283.79;102812;1327;138859;-80
2021/12/27 05:23:18;;;;;;;36.60;14.90;;;;;;;-9.26;82.95;98278.51;102407;1332;22813;-80
2021/12/27 05:25:44;;;;;;;37.30;13.50;;;;;;;-9.23;83.30;98278.26;102587;1327;138038;-80
2021/12/27 05:28:10;;;;;;;36.40;14.40;;;;;;;-9.24;82.76;98281.00;102848;1330;22827;-80
2021/12/27 05:30:38;;;;;;;38.50;14.00;;;;;;;-9.28;83.14;98284.29;102778;1327;22790;-81
2021/12/27 05:33:05;;;;;;;36.30;13.30;;;;;;;-9.34;82.99;98284.79;102518;1331;137871;-81
2021/12/27 05:35:31;;;;;;;32.70;13.10;;;;;;;-9.40;83.11;98287.38;102715;1331;25555;-81
2021/12/27 05:37:57;;;;;;;35.80;13.50;;;;;;;-9.48;83.16;98279.27;102687;1331;138148;-81
2021/12/27 05:40:24;;;;;;;41.80;15.50;;;;;;;-9.55;83.42;98274.53;102760;1327;22841;-80
2021/12/27 05:42:53;;;;;;;34.20;12.30;;;;;;;-9.60;83.68;98275.23;102779;1328;138934;-80
2021/12/27 05:45:21;;;;;;;43.90;16.60;;;;;;;-9.58;83.52;98275.83;102813;1333;23524;-80
2021/12/27 05:47:47;;;;;;;53.60;17.80;;;;;;;-9.55;83.85;98268.91;102862;1327;22740;-82
2021/12/27 05:50:15;;;;;;;44.30;16.20;;;;;;;-9.46;84.29;98266.08;102475;1332;138558;-80
2021/12/27 05:52:42;;;;;;;51.90;17.30;;;;;;;-9.40;84.02;98264.67;102658;1327;22940;-80
2021/12/27 05:55:10;;;;;;;42.00;17.20;;;;;;;-9.35;83.95;98265.02;102416;1333;138565;-80
2021/12/27 05:57:37;;;;;;;41.30;14.90;;;;;;;-9.31;84.04;98268.21;102675;1334;22715;-80
2021/12/27 06:00:07;;;;;;;41.20;15.80;;;;;;;-9.29;83.92;98268.58;102921;1331;24497;-81
2021/12/27 06:02:40;;;;;;;42.60;15.90;;;;;;;-9.28;83.86;98269.86;102687;1327;138850;-81
2021/12/27 06:05:07;;;;;;;39.00;15.50;;;;;;;-9.26;83.95;98269.88;102612;1331;25629;-80
2021/12/27 06:07:34;;;;;;;38.90;14.10;;;;;;;-9.22;84.13;98277.12;102889;1331;138402;-81
2021/12/27 06:10:01;;;;;;;38.10;15.60;;;;;;;-9.15;84.30;98279.86;102907;1332;26910;-80
2021/12/27 06:12:27;;;;;;;39.50;14.40;;;;;;;-9.07;84.07;98273.43;103094;1327;22638;-81
2021/12/27 06:14:53;;;;;;;43.60;15.50;;;;;;;-8.99;84.39;98271.74;102805;1330;138529;-81
2021/12/27 06:17:19;;;;;;;42.90;16.00;;;;;;;-8.94;84.22;98269.23;102926;1331;24344;-81
2021/12/27 06:19:46;;;;;;;39.80;15.10;;;;;;;-8.87;84.19;98271.63;102614;1333;139155;-80
2021/12/27 06:22:12;;;;;;;39.50;14.20;;;;;;;-8.79;84.10;98272.39;102443;1332;26852;-81
2021/12/27 06:24:38;;;;;;;36.30;14.50;;;;;;;-8.69;83.90;98272.58;102633;1333;22786;-81
2021/12/27 06:27:05;;;;;;;38.00;14.80;;;;;;;-8.60;84.15;98271.84;102948;1330;138215;-81
2021/12/27 06:29:31;;;;;;;31.90;13.60;;;;;;;-8.55;83.52;98272.48;102687;1332;22832;-81
2021/12/27 06:31:57;;;;;;;37.40;15.10;;;;;;;-8.50;83.48;98265.52;102831;1327;138954;-81
2021/12/27 06:34:24;;;;;;;36.90;15.10;;;;;;;-8.48;82.66;98264.65;102719;1327;22674;-81
2021/12/27 06:36:50;;;;;;;38.30;15.80;;;;;;;-8.52;82.72;98264.13;102585;1327;140196;-81
2021/12/27 06:39:16;;;;;;;36.70;14.60;;;;;;;-8.57;82.76;98260.75;102790;1327;22679;-80
2021/12/27 06:41:43;;;;;;;32.60;12.90;;;;;;;-8.66;82.77;98260.34;102824;1330;25779;-82
2021/12/27 06:44:09;;;;;;;29.80;12.30;;;;;;;-8.75;82.76;98257.80;102662;1332;137988;-81
2021/12/27 06:46:35;;;;;;;23.10;9.80;;;;;;;-8.82;83.20;98259.77;102759;1333;24228;-80
2021/12/27 06:49:02;;;;;;;32.50;12.70;;;;;;;-8.87;83.09;98257.02;102756;1331;138171;-80
2021/12/27 06:51:29;;;;;;;34.70;13.50;;;;;;;-8.92;83.68;98254.81;103030;1327;23614;-81
2021/12/27 06:53:56;;;;;;;35.50;12.60;;;;;;;-8.92;83.97;98258.01;102971;1330;23193;-81
2021/12/27 06:56:22;;;;;;;38.70;12.80;;;;;;;-8.91;83.87;98255.96;102634;1330;138773;-81
2021/12/27 06:58:49;;;;;;;32.80;13.90;;;;;;;-8.89;84.08;98260.95;102655;1331;24244;-81
2021/12/27 07:01:15;;;;;;;29.00;12.30;;;;;;;-8.86;84.22;98259.22;102785;1327;138591;-81
2021/12/27 07:03:41;;;;;;;34.30;12.30;;;;;;;-8.80;84.49;98256.08;102929;1330;25564;-81
2021/12/27 07:06:07;;;;;;;34.00;13.10;;;;;;;-8.75;84.55;98260.14;102953;1327;24391;-81
2021/12/27 07:08:34;;;;;;;31.90;13.10;;;;;;;-8.70;84.39;98263.23;102662;1327;138826;-81
2021/12/27 07:11:00;;;;;;;31.90;12.30;;;;;;;-8.66;84.44;98257.58;103002;1331;23125;-81
2021/12/27 07:13:27;;;;;;;26.70;11.70;;;;;;;-8.58;84.57;98250.94;102654;1327;138756;-81
2021/12/27 07:15:53;;;;;;;30.60;13.00;;;;;;;-8.55;84.07;98253.29;102743;1332;22804;-81
2021/12/27 07:18:23;;;;;;;33.60;13.30;;;;;;;-8.50;84.36;98256.75;102772;1327;24502;-81
2021/12/27 07:20:52;;;;;;;;;;;;;;;-8.45;84.11;98249.66;102606;1331;139360;-81
2021/12/27 07:23:19;;;;;;;30.20;12.40;;;;;;;-8.40;83.92;98241.78;102685;1333;26878;-80
2021/12/27 07:26:00;;;;;;;32.30;12.90;;;;;;;-8.34;84.36;98242.21;102377;1327;138492;-80
2021/12/27 07:28:27;;;;;;;40.40;13.80;;;;;;;-8.28;84.10;98241.44;102779;1327;22603;-81
2021/12/27 07:30:53;;;;;;;34.90;15.10;;;;;;;-8.22;84.40;98234.59;102722;1332;138596;-81
2021/12/27 07:33:20;;;;;;;38.80;14.70;;;;;;;-8.13;84.26;98240.58;102973;1331;22820;-80
2021/12/27 07:35:47;;;;;;;39.20;15.70;;;;;;;-8.06;84.23;98237.15;102688;1333;24332;-81
2021/12/27 07:38:14;;;;;;;44.70;16.90;;;;;;;-7.99;84.12;98234.25;102748;1330;137716;-81
2021/12/27 07:40:40;;;;;;;38.60;15.60;;;;;;;-7.97;84.14;98236.02;102524;1331;25592;-81
2021/12/27 07:43:06;;;;;;;42.80;14.90;;;;;;;-7.98;83.77;98232.22;102581;1327;139032;-80
2021/12/27 07:45:33;;;;;;;33.80;13.80;;;;;;;-8.01;83.61;98237.94;102261;1334;25659;-81
2021/12/27 07:48:00;;;;;;;42.60;15.90;;;;;;;-8.07;83.72;98231.72;102543;1327;22957;-82
2021/12/27 07:50:26;;;;;;;43.40;13.70;;;;;;;-8.12;83.57;98227.59;102628;1333;138303;-81
2021/12/27 07:52:53;;;;;;;42.80;16.50;;;;;;;-8.18;83.89;98225.36;102606;1328;25084;-81
2021/12/27 07:55:19;;;;;;;45.00;16.50;;;;;;;-8.24;84.05;98221.44;102133;1334;139445;-81
2021/12/27 07:57:46;;;;;;;43.90;17.90;;;;;;;-8.28;84.20;98219.67;102820;1333;22859;-82
2021/12/27 08:00:13;;;;;;;53.30;18.00;;;;;;;-8.27;84.26;98216.21;102448;1333;22586;-81
2021/12/27 08:02:39;;;;;;;48.20;17.90;;;;;;;-8.23;84.33;98216.45;102580;1327;140386;-81
2021/12/27 08:05:06;;;;;;;49.90;17.60;;;;;;;-8.22;84.50;98220.88;102052;1332;22737;-81
2021/12/27 08:07:33;;;;;;;47.30;19.50;;;;;;;-8.22;84.08;98221.03;102108;1327;138773;-81
2021/12/27 08:09:59;;;;;;;49.90;20.10;;;;;;;-8.19;84.53;98223.08;101970;1330;25527;-82
2021/12/27 08:12:26;;;;;;;45.50;16.90;;;;;;;-8.13;84.59;98214.29;102526;1327;25561;-82
2021/12/27 08:14:52;;;;;;;44.70;18.70;;;;;;;-8.04;84.31;98209.33;102567;1321;207629;-81
2021/12/27 08:17:18;;;;;;;48.50;17.80;;;;;;;-7.98;84.42;98208.64;102786;1331;24185;-82
2021/12/27 08:19:47;;;;;;;51.30;19.40;;;;;;;-7.93;84.29;98203.79;102662;1327;138974;-82
2021/12/27 08:22:13;;;;;;;51.00;17.90;;;;;;;-7.84;84.25;98208.63;103009;1328;22756;-82
2021/12/27 08:24:40;;;;;;;46.00;19.80;;;;;;;-7.76;83.85;98207.80;102650;1327;22620;-82
2021/12/27 08:27:06;;;;;;;47.70;17.60;;;;;;;-7.71;83.96;98203.60;102735;1330;138593;-82
2021/12/27 08:29:33;;;;;;;52.30;18.20;;;;;;;-7.65;83.53;98208.17;102916;1330;22577;-82
2021/12/27 08:31:59;;;;;;;57.10;23.50;;;;;;;-7.64;83.12;98205.45;102669;1328;137871;-82
2021/12/27 08:34:25;;;;;;;43.90;16.60;;;;;;;-7.67;82.83;98204.24;102908;1327;22754;-82
2021/12/27 08:36:52;;;;;;;50.90;16.80;;;;;;;-7.72;82.95;98195.25;102669;1328;138181;-82
2021/12/27 08:39:18;;;;;;;53.40;20.00;;;;;;;-7.74;82.83;98196.27;102930;1327;22579;-82
2021/12/27 08:41:44;;;;;;;58.40;18.40;;;;;;;-7.74;83.15;98194.90;103111;1331;22651;-82
2021/12/27 08:44:10;;;;;;;45.40;16.90;;;;;;;-7.76;82.94;98195.80;102710;1331;138013;-82
2021/12/27 08:46:36;;;;;;;50.20;18.90;;;;;;;-7.80;83.27;98193.51;102945;1328;24350;-82
2021/12/27 08:49:04;;;;;;;56.40;19.90;;;;;;;-7.83;83.48;98194.64;102603;1333;138258;-82
2021/12/27 08:51:31;;;;;;;48.50;20.70;;;;;;;-7.84;83.66;98195.20;102519;1331;25513;-82
2021/12/27 08:53:57;;;;;;;54.00;22.60;;;;;;;-7.82;83.48;98196.84;102678;1328;24265;-82
2021/12/27 08:56:24;;;;;;;52.20;19.90;;;;;;;-7.80;83.49;98194.70;102286;1327;138902;-82
2021/12/27 08:58:50;;;;;;;44.40;20.60;;;;;;;-7.75;83.12;98193.05;102897;1333;22690;-82
2021/12/27 09:01:17;;;;;;;53.70;20.30;;;;;;;-7.71;83.47;98189.13;102472;1327;138619;-82
2021/12/27 09:03:43;;;;;;;46.40;19.90;;;;;;;-7.67;83.32;98192.70;102489;1328;22864;-83
2021/12/27 09:06:09;;;;;;;56.70;20.50;;;;;;;-7.59;83.21;98188.14;102331;1327;24281;-82
2021/12/27 09:08:36;;;;;;;51.80;18.90;;;;;;;-7.56;82.99;98185.15;102329;1327;138621;-82
2021/12/27 09:11:16;;;;;;;51.90;18.90;;;;;;;-7.50;83.07;98180.92;102838;1327;24350;-82
2021/12/27 09:13:43;;;;;;;45.60;17.70;;;;;;;-7.46;82.80;98172.46;102604;1330;138873;-81
2021/12/27 09:16:11;;;;;;;50.70;19.40;;;;;;;-7.46;82.77;98168.42;102614;1332;22643;-82
2021/12/27 09:18:37;;;;;;;41.90;16.30;;;;;;;-7.44;82.37;98169.81;102388;1327;23297;-82
2021/12/27 09:21:04;;;;;;;43.80;16.90;;;;;;;-7.41;82.65;98169.80;102241;1328;137797;-82
2021/12/27 09:23:31;;;;;;;54.10;20.00;;;;;;;-7.40;82.99;98167.39;102321;1326;22589;-82
2021/12/27 09:25:58;;;;;;;43.80;16.90;;;;;;;-7.39;82.81;98169.91;103203;1327;138317;-82
2021/12/27 09:28:24;;;;;;;53.60;20.20;;;;;;;-7.38;82.91;98166.31;103332;1328;22607;-82
2021/12/27 09:30:50;;;;;;;44.90;17.70;;;;;;;-7.36;83.15;98159.62;102998;1327;138054;-82
2021/12/27 09:33:17;;;;;;;46.60;16.50;;;;;;;-7.38;82.97;98158.95;102846;1327;24446;-82
2021/12/27 09:35:43;;;;;;;40.30;15.40;;;;;;;-7.41;82.76;98157.92;102773;1328;22673;-82
2021/12/27 09:38:11;;;;;;;48.50;16.90;;;;;;;-7.45;82.78;98150.39;102839;1327;137965;-82
2021/12/27 09:40:39;;;;;;;56.90;18.30;;;;;;;-7.50;82.65;98149.58;103499;1327;25806;-82
2021/12/27 09:43:07;;;;;;;52.30;19.80;;;;;;;-7.54;82.87;98146.23;102844;1332;138885;-82
2021/12/27 09:45:34;;;;;;;47.50;19.60;;;;;;;-7.57;82.98;98145.43;103079;1331;22589;-81
2021/12/27 09:48:02;;;;;;;51.40;19.00;;;;;;;-7.54;83.05;98142.38;103131;1329;26353;-81
2021/12/27 09:50:35;;;;;;;49.20;18.10;;;;;;;-7.51;82.89;98135.88;103530;1328;138357;-82
2021/12/27 09:53:01;;;;;;;39.10;15.00;;;;;;;-7.49;82.99;98138.67;103206;1327;22615;-82
2021/12/27 09:55:28;;;;;;;55.90;20.40;;;;;;;-7.44;82.90;98136.55;102956;1327;138742;-82
2021/12/27 09:57:57;;;;;;;50.90;19.90;;;;;;;-7.41;82.88;98136.22;103486;1327;24246;-82
2021/12/27 10:00:24;;;;;;;45.70;20.10;;;;;;;-7.35;82.85;98136.45;103039;1327;23262;-82
2021/12/27 10:02:54;;;;;;;51.50;20.30;;;;;;;-7.23;83.35;98133.60;103212;1329;138517;-82
2021/12/27 10:05:23;;;;;;;55.00;20.40;;;;;;;-7.15;82.88;98136.33;103238;1328;22617;-83
2021/12/27 10:07:51;;;;;;;59.80;20.40;;;;;;;-7.08;82.95;98134.50;103060;1327;138944;-82
2021/12/27 10:10:20;;;;;;;46.30;17.70;;;;;;;-7.02;83.04;98135.02;103166;1330;23979;-82
2021/12/27 10:12:47;;;;;;;56.80;18.20;;;;;;;-6.99;82.66;98133.52;102962;1327;24267;-82
2021/12/27 10:15:35;;;;;;;51.80;18.50;;;;;;;-6.93;82.69;98135.44;102954;1324;137804;-82
2021/12/27 10:18:18;;;;;;;41.10;16.50;;;;;;;-6.94;82.50;98133.48;103474;1324;23211;-82
2021/12/27 10:20:47;;;;;;;53.30;18.90;;;;;;;-6.96;82.21;98131.05;103073;1324;137973;-82
2021/12/27 10:23:18;;;;;;;59.90;19.50;;;;;;;-6.99;82.74;98129.95;103238;1324;22657;-82
2021/12/27 10:25:50;;;;;;;52.40;19.90;;;;;;;-7.02;82.67;98132.89;103246;1327;139078;-82
2021/12/27 10:28:25;;;;;;;57.70;20.60;;;;;;;-7.05;82.71;98131.89;103329;1327;24342;-82
2021/12/27 10:31:01;;;;;;;52.90;19.50;;;;;;;-7.10;82.50;98133.45;102987;1330;22829;-82
2021/12/27 10:33:33;;;;;;;54.80;20.50;;;;;;;-7.15;82.61;98133.73;102793;1327;138513;-82
2021/12/27 10:35:59;;;;;;;60.00;19.50;;;;;;;-7.15;82.64;98130.03;103024;1327;25482;-82
2021/12/27 10:38:31;;;;;;;55.90;19.00;;;;;;;-7.12;82.42;98132.55;102934;1324;138435;-82
2021/12/27 10:41:10;;;;;;;48.00;18.90;;;;;;;-7.11;82.64;98133.34;103424;1324;25709;-82
2021/12/27 10:43:43;;;;;;;48.10;15.90;;;;;;;-7.10;83.09;98124.65;103043;1324;138689;-83
2021/12/27 10:46:13;;;;;;;50.40;17.70;;;;;;;-7.13;82.80;98120.51;103136;1331;23037;-82
2021/12/27 10:48:59;;;;;;;46.80;18.30;;;;;;;-7.15;82.80;98117.30;102716;1327;22641;-82
2021/12/27 10:51:28;;;;;;;49.10;17.00;;;;;;;-7.17;82.87;98112.91;102702;1332;137944;-82
2021/12/27 10:54:01;;;;;;;62.00;22.10;;;;;;;-7.17;83.05;98106.52;103318;1326;22593;-82
2021/12/27 10:56:47;;;;;;;67.30;22.80;;;;;;;-7.11;83.67;98100.70;102970;1332;138296;-82
2021/12/27 10:59:18;;;;;;;51.20;20.50;;;;;;;-7.05;83.14;98097.34;103229;1328;22308;-82
2021/12/27 11:02:16;;;;;;;51.40;19.30;;;;;;;-7.00;83.32;98090.30;102720;1327;138793;-82
2021/12/27 11:04:43;;;;;;;54.80;20.30;;;;;;;-6.94;82.90;98083.10;102948;1332;25654;-82
2021/12/27 11:07:11;;;;;;;54.10;19.60;;;;;;;-6.91;82.70;98079.62;102947;1324;139069;-82
2021/12/27 11:09:39;;;;;;;50.40;19.80;;;;;;;-6.89;83.10;98078.16;103167;1325;25345;-83
2021/12/27 11:12:06;;;;;;;60.00;22.60;;;;;;;-6.86;82.56;98080.94;103099;1328;22927;-82
2021/12/27 11:14:33;;;;;;;61.10;20.90;;;;;;;-6.88;82.99;98074.56;103195;1324;138986;-82